Pagrindinis puslapis
METAR-TAF:

METAR-TAF

Oro uostai :

Xiamen, Kinija

platuma: 24-29N, ilguma: 118-05E, Aukštis: 139 m

Dabartinis oras

Ataskaita buvo paskelbta 1 valandą ir 6 minutes, ne 21:00 UTC
Vėjas 6 kt iš Rytų
Temperatūra 16°C
Drėgmė 72%
Slėgis 1019 hPa
Matomumas 10 km arba daugiau
Išsisklaidę debesys ne aukštis 6000 ft

METAR: ZSAM 262100Z 09003MPS 9999 SCT060 16/11 Q1019 NOSIG

Laikas: 06:06 (22:06 UTC)

Prognozė

Ataskaita buvo paskelbta 6 valandos ir 59 minutes, ne 15:07 UTC
Prognozė galioja nuo 26 metu 18 UTC su 27 metu 18 UTC
Vėjas 8 kt iš Šiaurės Rytų
Matomumas: 5000 m
Išsisklaidę debesys ne aukštis 3000 ft
rūkana
Tapsmas
nuo 27 metu 05 UTC su 27 metu 06 UTC
Vėjas 10 kt iš Rytų/Pietryčių su gūsio iki 19 kt
Tapsmas
nuo 27 metu 11 UTC su 27 metu 12 UTC
Vėjas 8 kt iš Šiaurės Rytų

TAF: ZSAM 261507Z 2618/2718 05004MPS 5000 BR SCT030 TX21/2706Z TN13/2621Z BECMG 2705/2706 11005G10MPS BECMG 2711/2712 05004MPS

Orai ataskaitas ir orų prognozės (METAR, TAF).

turimą stotys yra geltonos ir raudonos taškus žemėlapyje.

Perkelti pele per norėdami pamatyti stoties vardą.

Tada spustelėkite, norėdami matyti oro stebėjimo ir prognozės.

Norėdami pakeisti žemėlapį: spustelėkite ant žalios mygtukų su juodo kryžiaus žemyn,; žalią mygtuką su brūkšneliu, jei norite nutolinti; arba žalių rodyklių gretimoms žemėlapius.


METAR-TAF: